createdAt,value
2018-11-26T00:01:15.344Z,6.26
2018-11-26T00:03:43.676Z,6.21
2018-11-26T00:06:12.256Z,6.15
2018-11-26T00:08:40.042Z,6.10
2018-11-26T00:11:16.043Z,6.06
2018-11-26T00:13:45.829Z,6.02
2018-11-26T00:16:15.087Z,6.00
2018-11-26T00:18:42.842Z,5.99
2018-11-26T00:21:12.033Z,5.99
2018-11-26T00:23:40.135Z,6.02
2018-11-26T00:26:08.061Z,6.04
2018-11-26T00:28:36.780Z,6.05
2018-11-26T00:31:05.108Z,6.07
2018-11-26T00:33:32.865Z,6.09
2018-11-26T00:36:01.193Z,6.09
2018-11-26T00:38:29.842Z,6.11
2018-11-26T00:40:58.860Z,6.12
2018-11-26T00:43:26.611Z,6.13
2018-11-26T00:45:54.932Z,6.14
2018-11-26T00:48:23.827Z,6.13
2018-11-26T00:50:52.529Z,6.12
2018-11-26T00:53:21.057Z,6.12
2018-11-26T00:55:48.804Z,6.10
2018-11-26T00:58:17.166Z,6.06
2018-11-26T01:00:46.091Z,6.04
2018-11-26T01:03:14.430Z,6.04
2018-11-26T01:05:42.170Z,6.01
2018-11-26T01:08:10.497Z,5.98
2018-11-26T01:10:39.413Z,5.95
2018-11-26T01:13:07.715Z,5.93
2018-11-26T01:15:36.029Z,5.92
2018-11-26T01:18:04.350Z,5.90
2018-11-26T01:20:32.094Z,5.88
2018-11-26T01:23:00.999Z,5.87
2018-11-26T01:25:28.738Z,5.84
2018-11-26T01:27:57.629Z,5.82
2018-11-26T01:30:25.378Z,5.78
2018-11-26T01:32:53.676Z,5.75
2018-11-26T01:35:22.576Z,5.77
2018-11-26T01:37:50.902Z,5.79
2018-11-26T01:40:18.642Z,5.79
2018-11-26T01:42:47.550Z,5.79
2018-11-26T01:45:15.531Z,5.78
2018-11-26T01:47:44.466Z,5.79
2018-11-26T01:50:12.208Z,5.78
2018-11-26T01:52:40.513Z,5.76
2018-11-26T01:55:09.406Z,5.72
2018-11-26T01:57:37.719Z,5.67
2018-11-26T02:00:05.451Z,5.60
2018-11-26T02:02:34.369Z,5.55
2018-11-26T02:05:02.101Z,5.51
2018-11-26T02:07:30.989Z,5.47
2018-11-26T02:09:58.720Z,5.44
2018-11-26T02:12:27.353Z,5.41
2018-11-26T02:14:55.345Z,5.39
2018-11-26T02:17:24.237Z,5.35
2018-11-26T02:19:51.979Z,5.31
2018-11-26T02:22:20.876Z,5.28
2018-11-26T02:24:48.614Z,5.25
2018-11-26T02:27:17.511Z,5.23
2018-11-26T02:29:45.252Z,5.19
2018-11-26T02:32:14.132Z,5.14
2018-11-26T02:34:42.446Z,5.08
2018-11-26T02:37:10.765Z,5.00
2018-11-26T02:39:39.089Z,4.92
2018-11-26T02:42:06.835Z,4.85
2018-11-26T02:44:35.726Z,4.79
2018-11-26T02:47:03.459Z,4.71
2018-11-26T02:49:32.351Z,4.64
2018-11-26T02:52:00.667Z,4.55
2018-11-26T02:54:28.998Z,4.48
2018-11-26T02:56:57.589Z,4.44
2018-11-26T02:59:25.901Z,4.37
2018-11-26T03:01:54.224Z,4.29
2018-11-26T03:04:22.569Z,4.21
2018-11-26T03:06:50.306Z,4.16
2018-11-26T03:09:19.213Z,4.10
2018-11-26T03:11:47.525Z,4.06
2018-11-26T03:14:15.262Z,4.02
2018-11-26T03:16:44.171Z,3.96
2018-11-26T03:19:12.482Z,3.90
2018-11-26T03:21:40.809Z,3.86
2018-11-26T03:24:09.138Z,3.79
2018-11-26T03:26:36.892Z,3.74
2018-11-26T03:29:06.121Z,3.67
2018-11-26T03:31:33.866Z,3.59
2018-11-26T03:34:02.987Z,3.53
2018-11-26T03:36:31.313Z,3.49
2018-11-26T03:38:59.627Z,3.42
2018-11-26T03:41:27.370Z,3.37
2018-11-26T03:43:55.683Z,3.28
2018-11-26T03:46:24.587Z,3.18
2018-11-26T03:48:52.330Z,3.12
2018-11-26T03:51:20.655Z,3.01
2018-11-26T03:53:49.149Z,2.91
2018-11-26T03:56:17.884Z,2.80
2018-11-26T03:58:46.200Z,2.70
2018-11-26T04:01:14.529Z,2.63
2018-11-26T04:03:42.849Z,2.60
2018-11-26T04:06:10.661Z,2.56
2018-11-26T04:08:38.938Z,2.52
2018-11-26T04:11:07.840Z,2.44
2018-11-26T04:13:35.590Z,2.37
2018-11-26T04:16:04.486Z,2.34
2018-11-26T04:18:32.827Z,2.31
2018-11-26T04:21:00.621Z,2.28
2018-11-26T04:23:29.499Z,2.25
2018-11-26T04:25:57.832Z,2.24
2018-11-26T04:28:26.153Z,2.21
2018-11-26T04:30:53.891Z,2.20
2018-11-26T04:33:22.801Z,2.19
2018-11-26T04:35:50.546Z,2.16
2018-11-26T04:38:18.882Z,2.18
2018-11-26T04:40:47.209Z,2.21
2018-11-26T04:43:16.113Z,2.24
2018-11-26T04:45:44.442Z,2.21
2018-11-26T04:48:12.191Z,2.13
2018-11-26T04:50:41.107Z,2.07
2018-11-26T04:53:09.765Z,2.02
2018-11-26T04:55:38.089Z,2.02
2018-11-26T04:58:06.411Z,2.03
2018-11-26T05:00:34.745Z,2.02
2018-11-26T05:03:03.082Z,1.96
2018-11-26T05:05:31.416Z,1.92
2018-11-26T05:08:00.365Z,1.90
2018-11-26T05:10:28.117Z,1.88
2018-11-26T05:12:56.446Z,1.83
2018-11-26T05:15:25.672Z,1.78
2018-11-26T05:17:54.002Z,1.78
2018-11-26T05:20:21.753Z,1.76
2018-11-26T05:22:50.655Z,1.78
2018-11-26T05:25:18.407Z,1.83
2018-11-26T05:27:46.730Z,1.83
2018-11-26T05:30:15.213Z,1.83
2018-11-26T05:32:43.961Z,1.82
2018-11-26T05:35:12.290Z,1.77
2018-11-26T05:37:40.052Z,1.73
2018-11-26T05:40:09.268Z,1.69
2018-11-26T05:42:37.009Z,1.66
2018-11-26T05:45:05.336Z,1.65
2018-11-26T05:47:34.238Z,1.64
2018-11-26T05:50:01.983Z,1.63
2018-11-26T05:52:30.306Z,1.61
2018-11-26T05:54:58.621Z,1.58
2018-11-26T05:57:27.531Z,1.58
2018-11-26T05:59:55.282Z,1.60
2018-11-26T06:02:24.170Z,1.60
2018-11-26T06:04:52.498Z,1.57
2018-11-26T06:07:21.163Z,1.53
2018-11-26T06:09:49.505Z,1.48
2018-11-26T06:12:17.828Z,1.46
2018-11-26T06:14:45.571Z,1.47
2018-11-26T06:17:14.197Z,1.51
2018-11-26T06:19:42.561Z,1.53
2018-11-26T06:22:10.846Z,1.56
2018-11-26T06:24:39.749Z,1.55
2018-11-26T06:27:07.498Z,1.53
2018-11-26T06:29:36.411Z,1.53
2018-11-26T06:32:04.744Z,1.53
2018-11-26T06:34:33.073Z,1.51
2018-11-26T06:37:01.404Z,1.41
2018-11-26T06:39:29.153Z,1.31
2018-11-26T06:41:58.075Z,1.22
2018-11-26T06:44:26.409Z,1.18
2018-11-26T06:46:54.151Z,1.17
2018-11-26T06:49:23.050Z,1.13
2018-11-26T06:51:50.874Z,1.10
2018-11-26T06:54:19.152Z,1.08
2018-11-26T06:56:47.471Z,1.11
2018-11-26T06:59:16.372Z,1.12
2018-11-26T07:01:44.690Z,1.12
2018-11-26T07:04:12.549Z,1.12
2018-11-26T07:06:41.348Z,1.17
2018-11-26T07:09:09.103Z,1.21
2018-11-26T07:11:38.033Z,1.20
2018-11-26T07:14:06.377Z,1.18
2018-11-26T07:16:34.682Z,1.17
2018-11-26T07:19:02.439Z,1.11
2018-11-26T07:21:30.816Z,1.08
2018-11-26T07:23:59.663Z,1.11
2018-11-26T07:26:27.990Z,1.14
2018-11-26T07:28:56.314Z,1.22
2018-11-26T07:31:24.639Z,1.25
2018-11-26T07:33:52.380Z,1.27
2018-11-26T07:36:21.288Z,1.26
2018-11-26T07:38:49.612Z,1.24
2018-11-26T07:41:17.355Z,1.23
2018-11-26T07:43:46.270Z,1.26
2018-11-26T07:46:14.590Z,1.31
2018-11-26T07:48:42.354Z,1.34
2018-11-26T07:51:11.274Z,1.41
2018-11-26T07:53:39.025Z,1.51
2018-11-26T07:56:07.935Z,1.62
2018-11-26T07:58:36.258Z,1.74
2018-11-26T08:01:04.580Z,1.83
2018-11-26T08:03:32.957Z,1.91
2018-11-26T08:06:02.366Z,1.98
2018-11-26T08:08:29.597Z,2.05
2018-11-26T08:10:57.357Z,2.11
2018-11-26T08:13:26.319Z,2.16
2018-11-26T08:15:54.655Z,2.20
2018-11-26T08:18:22.980Z,2.22
2018-11-26T08:20:51.317Z,2.23
2018-11-26T08:23:19.068Z,2.32
2018-11-26T08:25:47.417Z,2.41
2018-11-26T08:28:16.380Z,2.50
2018-11-26T08:30:44.729Z,2.57
2018-11-26T08:33:13.053Z,2.62
2018-11-26T08:35:41.403Z,2.70
2018-11-26T08:38:10.840Z,2.74
2018-11-26T08:40:37.792Z,2.78
2018-11-26T08:43:06.735Z,2.84
2018-11-26T08:45:35.023Z,2.88
2018-11-26T08:48:03.360Z,2.90
2018-11-26T08:50:31.802Z,2.92
2018-11-26T08:53:00.138Z,2.95
2018-11-26T08:55:28.451Z,2.98
2018-11-26T08:57:57.086Z,3.02
2018-11-26T09:00:25.403Z,3.10
2018-11-26T09:02:53.730Z,3.17
2018-11-26T09:05:24.122Z,3.24
2018-11-26T09:07:50.908Z,3.31
2018-11-26T09:10:19.003Z,3.38
2018-11-26T09:12:47.330Z,3.44
2018-11-26T09:15:15.695Z,3.51
2018-11-26T09:17:43.459Z,3.58
2018-11-26T09:20:11.780Z,3.66
2018-11-26T09:22:40.690Z,3.71
2018-11-26T09:25:09.017Z,3.76
2018-11-26T09:27:37.354Z,3.80
2018-11-26T09:30:06.097Z,3.84
2018-11-26T09:32:34.696Z,3.89
2018-11-26T09:35:02.443Z,3.94
2018-11-26T09:37:31.348Z,3.97
2018-11-26T09:39:59.097Z,4.01
2018-11-26T09:42:28.005Z,4.05
2018-11-26T09:44:55.751Z,4.09
2018-11-26T09:47:24.655Z,4.15
2018-11-26T09:49:52.410Z,4.21
2018-11-26T09:52:21.646Z,4.31
2018-11-26T09:54:50.001Z,4.38
2018-11-26T09:57:18.296Z,4.45
2018-11-26T09:59:46.630Z,4.51
2018-11-26T10:02:14.961Z,4.60
2018-11-26T10:04:42.725Z,4.67
2018-11-26T10:07:11.056Z,4.74
2018-11-26T10:09:39.960Z,4.80
2018-11-26T10:12:08.291Z,4.85
2018-11-26T10:14:36.607Z,4.92
2018-11-26T10:17:04.374Z,4.98
2018-11-26T10:19:32.846Z,5.06
2018-11-26T10:22:01.172Z,5.14
2018-11-26T10:24:30.092Z,5.21
2018-11-26T10:26:58.407Z,5.26
2018-11-26T10:29:26.170Z,5.31
2018-11-26T10:31:55.072Z,5.33
2018-11-26T10:34:23.618Z,5.37
2018-11-26T10:36:51.393Z,5.40
2018-11-26T10:39:20.304Z,5.42
2018-11-26T10:41:48.038Z,5.45
2018-11-26T10:44:16.950Z,5.47
2018-11-26T10:46:45.262Z,5.50
2018-11-26T10:49:13.587Z,5.53
2018-11-26T10:51:41.898Z,5.58
2018-11-26T10:54:09.651Z,5.60
2018-11-26T10:56:37.966Z,5.64
2018-11-26T10:59:06.289Z,5.68
2018-11-26T11:01:35.190Z,5.75
2018-11-26T11:04:02.931Z,5.81
2018-11-26T11:06:31.832Z,5.88
2018-11-26T11:08:59.567Z,5.97
2018-11-26T11:11:28.487Z,6.05
2018-11-26T11:13:56.224Z,6.15
2018-11-26T11:16:25.107Z,6.29
2018-11-26T11:18:53.443Z,6.43
2018-11-26T11:21:21.757Z,6.61
2018-11-26T11:23:49.499Z,6.79
2018-11-26T11:26:17.832Z,6.91
2018-11-26T11:28:46.708Z,7.00
2018-11-26T11:31:15.029Z,7.06
2018-11-26T11:33:43.346Z,7.09
2018-11-26T11:36:11.671Z,7.15
2018-11-26T11:38:39.976Z,7.21
2018-11-26T11:41:08.305Z,7.31
2018-11-26T11:43:36.620Z,7.43
2018-11-26T11:46:04.947Z,7.55
2018-11-26T11:48:33.266Z,7.60
2018-11-26T11:51:01.587Z,7.69
2018-11-26T11:53:29.963Z,7.76
2018-11-26T11:55:58.292Z,7.85
2018-11-26T11:58:26.620Z,7.89
2018-11-26T12:00:54.945Z,7.93
2018-11-26T12:03:23.279Z,7.94
2018-11-26T12:05:51.592Z,7.96
2018-11-26T12:08:19.913Z,7.99
2018-11-26T12:10:48.230Z,8.00
2018-11-26T12:13:16.566Z,7.98
2018-11-26T12:15:44.913Z,8.00
2018-11-26T12:18:13.542Z,8.01
2018-11-26T12:20:41.878Z,8.07
2018-11-26T12:23:10.213Z,8.14
2018-11-26T12:25:38.536Z,8.18
2018-11-26T12:28:06.873Z,8.20
2018-11-26T12:30:35.185Z,8.15
2018-11-26T12:33:03.507Z,8.07
2018-11-26T12:35:31.825Z,8.02
2018-11-26T12:38:00.148Z,7.94
2018-11-26T12:40:28.471Z,7.91
2018-11-26T12:42:56.781Z,7.90
2018-11-26T12:45:25.101Z,7.86
2018-11-26T12:47:53.420Z,7.82
2018-11-26T12:50:21.762Z,7.79
2018-11-26T12:52:50.902Z,7.74
2018-11-26T12:55:19.231Z,7.68
2018-11-26T12:57:47.547Z,7.61
2018-11-26T13:00:15.855Z,7.56
2018-11-26T13:02:44.186Z,7.52
2018-11-26T13:05:12.495Z,7.45
2018-11-26T13:07:40.815Z,7.38
2018-11-26T13:10:09.151Z,7.31
2018-11-26T13:12:37.463Z,7.25
2018-11-26T13:15:05.789Z,7.24
2018-11-26T13:17:34.114Z,7.23
2018-11-26T13:20:02.455Z,7.22
2018-11-26T13:22:30.801Z,7.20
2018-11-26T13:24:59.129Z,7.19
2018-11-26T13:27:27.444Z,7.16
2018-11-26T13:29:55.772Z,7.13
2018-11-26T13:32:24.093Z,7.10
2018-11-26T13:34:52.420Z,7.06
2018-11-26T13:37:20.754Z,7.03
2018-11-26T13:39:49.087Z,6.99
2018-11-26T13:42:17.418Z,6.95
2018-11-26T13:44:45.750Z,6.91
2018-11-26T13:47:14.079Z,6.88
2018-11-26T13:49:42.404Z,6.81
2018-11-26T13:52:10.738Z,6.73
2018-11-26T13:54:39.063Z,6.69
2018-11-26T13:57:07.385Z,6.66
2018-11-26T13:59:35.716Z,6.65
2018-11-26T14:02:04.305Z,6.64
2018-11-26T14:04:32.635Z,6.63
2018-11-26T14:07:00.965Z,6.62
2018-11-26T14:09:29.297Z,6.61
2018-11-26T14:11:57.624Z,6.58
2018-11-26T14:14:25.951Z,6.54
2018-11-26T14:16:54.277Z,6.51
2018-11-26T14:19:22.613Z,6.45
2018-11-26T14:21:50.938Z,6.42
2018-11-26T14:24:19.279Z,6.40
2018-11-26T14:26:48.504Z,6.37
2018-11-26T14:29:16.839Z,6.32
2018-11-26T14:31:45.175Z,6.29
2018-11-26T14:34:13.521Z,6.14
2018-11-26T14:36:41.847Z,5.96
2018-11-26T14:39:10.190Z,5.82
2018-11-26T14:41:38.520Z,5.73
2018-11-26T14:44:08.138Z,5.64
2018-11-26T14:46:36.469Z,5.57
2018-11-26T14:49:05.071Z,5.52
2018-11-26T14:51:33.397Z,5.48
2018-11-26T14:54:01.723Z,5.48
2018-11-26T14:56:30.050Z,5.49
2018-11-26T14:58:58.386Z,5.52
2018-11-26T15:01:26.719Z,5.50
2018-11-26T15:03:55.061Z,5.54
2018-11-26T15:06:23.393Z,5.58
2018-11-26T15:08:51.722Z,5.62
2018-11-26T15:11:20.049Z,5.64
2018-11-26T15:13:48.379Z,5.63
2018-11-26T15:16:16.719Z,5.61
2018-11-26T15:18:45.042Z,5.56
2018-11-26T15:21:13.377Z,5.53
2018-11-26T15:23:41.707Z,5.50
2018-11-26T15:26:10.030Z,5.41
2018-11-26T15:28:38.357Z,5.35
2018-11-26T15:31:06.693Z,5.39
2018-11-26T15:33:35.020Z,5.44
2018-11-26T15:36:03.347Z,5.49
2018-11-26T15:38:31.677Z,5.53
2018-11-26T15:41:00.024Z,5.52
2018-11-26T15:43:28.360Z,5.44
2018-11-26T15:45:57.000Z,5.33
2018-11-26T15:48:25.317Z,5.27
2018-11-26T15:50:53.974Z,5.21
2018-11-26T15:53:22.312Z,5.18
2018-11-26T15:55:50.664Z,5.19
2018-11-26T15:58:23.589Z,5.21
2018-11-26T16:00:47.334Z,5.23
2018-11-26T16:03:15.667Z,5.24
2018-11-26T16:05:44.002Z,5.24
2018-11-26T16:08:12.332Z,5.31
2018-11-26T16:10:40.661Z,5.37
2018-11-26T16:13:08.983Z,5.38
2018-11-26T16:15:37.312Z,5.27
2018-11-26T16:18:05.659Z,5.14
2018-11-26T16:20:33.997Z,5.05
2018-11-26T16:23:02.335Z,5.00
2018-11-26T16:25:30.675Z,4.99
2018-11-26T16:27:59.031Z,4.99
2018-11-26T16:30:27.374Z,4.97
2018-11-26T16:32:55.711Z,4.97
2018-11-26T16:35:24.046Z,4.95
2018-11-26T16:37:52.376Z,4.92
2018-11-26T16:40:20.814Z,4.93
2018-11-26T16:42:49.101Z,4.93
2018-11-26T16:45:17.435Z,4.95
2018-11-26T16:47:45.753Z,4.93
2018-11-26T16:50:14.099Z,4.89
2018-11-26T16:52:43.057Z,4.92
2018-11-26T16:55:11.399Z,4.98
2018-11-26T16:57:40.862Z,5.01
2018-11-26T17:00:08.318Z,5.02
2018-11-26T17:02:43.667Z,5.04
2018-11-26T17:05:12.033Z,4.99
2018-11-26T17:07:40.702Z,4.89
2018-11-26T17:10:08.807Z,4.83
2018-11-26T17:12:37.464Z,4.78
2018-11-26T17:15:07.808Z,4.73
2018-11-26T17:17:36.177Z,4.70
2018-11-26T17:20:04.498Z,4.72
2018-11-26T17:22:32.874Z,4.77
2018-11-26T17:25:01.287Z,4.71
2018-11-26T17:27:29.667Z,4.61
2018-11-26T17:29:58.135Z,4.56
2018-11-26T17:32:26.844Z,4.51
2018-11-26T17:34:55.447Z,4.48
2018-11-26T17:37:24.202Z,4.42
2018-11-26T17:39:52.860Z,4.40
2018-11-26T17:42:21.551Z,4.37
2018-11-26T17:44:49.878Z,4.35
2018-11-26T17:47:18.200Z,4.36
2018-11-26T17:49:46.551Z,4.33
2018-11-26T17:52:14.931Z,4.29
2018-11-26T17:54:43.253Z,4.26
2018-11-26T17:57:11.588Z,4.28
2018-11-26T17:59:39.992Z,4.32
2018-11-26T18:02:08.322Z,4.37
2018-11-26T18:04:36.680Z,4.39
2018-11-26T18:07:05.017Z,4.38
2018-11-26T18:09:33.353Z,4.38
2018-11-26T18:12:01.704Z,4.31
2018-11-26T18:14:30.101Z,4.17
2018-11-26T18:16:58.495Z,4.09
2018-11-26T18:19:26.978Z,4.06
2018-11-26T18:21:55.333Z,3.96
2018-11-26T18:24:24.014Z,3.90
2018-11-26T18:26:52.351Z,3.87
2018-11-26T18:29:20.680Z,3.90
2018-11-26T18:31:49.116Z,3.94
2018-11-26T18:34:17.494Z,3.99
2018-11-26T18:36:45.844Z,4.01
2018-11-26T18:39:14.182Z,4.01
2018-11-26T18:41:42.519Z,4.01
2018-11-26T18:44:10.852Z,4.00
2018-11-26T18:46:39.194Z,3.97
2018-11-26T18:49:08.642Z,3.96
2018-11-26T18:51:36.975Z,3.95
2018-11-26T18:54:05.394Z,3.93
2018-11-26T18:56:33.752Z,3.93
2018-11-26T18:59:02.147Z,3.94
2018-11-26T19:01:30.541Z,3.92
2018-11-26T19:03:59.295Z,3.91
2018-11-26T19:06:27.653Z,3.92
2018-11-26T19:08:56.331Z,3.90
2018-11-26T19:11:24.671Z,3.80
2018-11-26T19:13:53.020Z,3.73
2018-11-26T19:16:21.731Z,3.71
2018-11-26T19:18:50.206Z,3.70
2018-11-26T19:21:18.576Z,3.69
2018-11-26T19:23:46.924Z,3.68
2018-11-26T19:26:15.265Z,3.67
2018-11-26T19:28:43.679Z,3.64
2018-11-26T19:31:12.055Z,3.67
2018-11-26T19:33:40.393Z,3.69
2018-11-26T19:36:10.109Z,3.75
2018-11-26T19:38:38.587Z,3.77
2018-11-26T19:41:06.800Z,3.71
2018-11-26T19:43:35.151Z,3.70
2018-11-26T19:46:03.494Z,3.72
2018-11-26T19:48:31.931Z,3.71
2018-11-26T19:51:00.363Z,3.68
2018-11-26T19:53:28.706Z,3.70
2018-11-26T19:55:57.012Z,3.70
2018-11-26T19:58:25.374Z,3.73
2018-11-26T20:00:53.744Z,3.76
2018-11-26T20:03:22.069Z,3.81
2018-11-26T20:05:50.409Z,3.86
2018-11-26T20:08:18.767Z,3.91
2018-11-26T20:10:47.072Z,3.94
2018-11-26T20:13:15.520Z,3.91
2018-11-26T20:15:43.754Z,3.84
2018-11-26T20:18:12.089Z,3.81
2018-11-26T20:20:40.473Z,3.78
2018-11-26T20:23:08.800Z,3.78
2018-11-26T20:25:37.152Z,3.79
2018-11-26T20:28:05.481Z,3.78
2018-11-26T20:30:33.823Z,3.80
2018-11-26T20:33:02.374Z,3.76
2018-11-26T20:35:30.747Z,3.73
2018-11-26T20:37:59.080Z,3.71
2018-11-26T20:40:28.207Z,3.68
2018-11-26T20:42:56.822Z,3.69
2018-11-26T20:45:25.185Z,3.68
2018-11-26T20:47:53.580Z,3.66
2018-11-26T20:50:21.910Z,3.62
2018-11-26T20:52:50.244Z,3.62
2018-11-26T20:55:18.808Z,3.62
2018-11-26T20:57:46.957Z,3.60
2018-11-26T21:00:15.267Z,3.55
2018-11-26T21:02:43.645Z,3.49
2018-11-26T21:05:11.977Z,3.47
2018-11-26T21:07:40.312Z,3.45
2018-11-26T21:10:08.660Z,3.44
2018-11-26T21:12:37.105Z,3.46
2018-11-26T21:15:05.433Z,3.50
2018-11-26T21:17:33.782Z,3.52
2018-11-26T21:20:02.114Z,3.54
2018-11-26T21:22:30.440Z,3.54
2018-11-26T21:24:58.768Z,3.57
2018-11-26T21:27:27.093Z,3.58
2018-11-26T21:29:55.417Z,3.58
2018-11-26T21:32:23.754Z,3.60
2018-11-26T21:34:52.085Z,3.62
2018-11-26T21:37:20.441Z,3.65
2018-11-26T21:39:48.789Z,3.68
2018-11-26T21:42:17.129Z,3.72
2018-11-26T21:44:45.485Z,3.68
2018-11-26T21:47:13.805Z,3.66
2018-11-26T21:49:42.144Z,3.66
2018-11-26T21:52:10.465Z,3.64
2018-11-26T21:54:38.843Z,3.60
2018-11-26T21:57:07.180Z,3.53
2018-11-26T21:59:35.532Z,3.52
2018-11-26T22:02:03.959Z,3.57
2018-11-26T22:04:32.303Z,3.58
2018-11-26T22:07:00.634Z,3.57
2018-11-26T22:09:29.019Z,3.55
2018-11-26T22:39:24.928Z,3.62
2018-11-26T22:41:53.254Z,3.62
2018-11-26T22:44:21.992Z,3.62
2018-11-26T22:46:50.316Z,3.62
2018-11-26T22:49:18.652Z,3.62
2018-11-26T22:51:51.273Z,3.63
2018-11-26T22:54:15.345Z,3.61
2018-11-26T22:56:43.668Z,3.56
2018-11-26T22:59:11.998Z,3.51
2018-11-26T23:01:40.328Z,3.46
2018-11-26T23:04:08.654Z,3.44
2018-11-26T23:06:36.984Z,3.46
2018-11-26T23:09:05.314Z,3.44
2018-11-26T23:11:33.651Z,3.44
2018-11-26T23:14:01.979Z,3.47
2018-11-26T23:16:30.304Z,3.50
2018-11-26T23:18:58.629Z,3.51
2018-11-26T23:21:26.953Z,3.52
2018-11-26T23:23:55.280Z,3.54
2018-11-26T23:26:23.608Z,3.55
2018-11-26T23:28:51.936Z,3.56
2018-11-26T23:31:20.258Z,3.56
2018-11-26T23:33:48.589Z,3.58
2018-11-26T23:36:16.914Z,3.58
2018-11-26T23:38:45.245Z,3.56
2018-11-26T23:41:13.592Z,3.53
2018-11-26T23:43:41.936Z,3.54
2018-11-26T23:46:10.251Z,3.55
2018-11-26T23:48:38.584Z,3.56
2018-11-26T23:51:06.916Z,3.58
2018-11-26T23:53:35.248Z,3.64
2018-11-26T23:56:03.579Z,3.69
2018-11-26T23:58:31.902Z,3.72
